NVSS

Santo Pekoa International Airport

Luganville, Vanuatu
TAF NVSS 212220Z 2200/2224 14009KT 9999 SCT020 BKN050 INTER 2200/2206 8000 SHRA BKN016 OVC038 PROB30 INTER 2202/2206 8000 -TSRA BKN016 FEW022CB
Issued Valid From Valid To
Jan-21 @ 22:20 UTC
(2 hours ago)
Jan-22 @ 00:00 UTC
(7 minutes ago)
Jan-23 @ 00:00 UTC
(in 24 hours)
Jan-22 @ 00:00 to Jan-23 @ 00:00
TAF NVSS 212220Z 2200/2224 14009KT 9999 SCT020 BKN050
Wind Visibility Clouds
140° at 9 knots 10,000+ meters
  • Scattered at 2,000' AGL
  • Broken at 5,000' AGL
Temporary Jan-22 @ 00:00 to Jan-22 @ 06:00
INTER 2200/2206 8000 SHRA BKN016 OVC038
Visibility Clouds Conditions
7,998 meters
  • Broken at 1,600' AGL
  • Overcast at 3,800' AGL
  • Rain
Temporary  (Probability 30%) Jan-22 @ 02:00 to Jan-22 @ 06:00
PROB30 INTER 2202/2206 8000 -TSRA BKN016 FEW022CB
Visibility Clouds Conditions
7,998 meters
  • Broken at 1,600' AGL
  • Few at 2,200' AGL
  • Light Thunderstorm
  • Light Rain
TAF NVSS 212220Z 2200/2224 14009KT 9999 SCT020 BKN050 INTER 2200/2206 8000 SHRA BKN016 OVC038 PROB30 INTER 2202/2206 8000 -TSRA BKN016 FEW022CB
Issued Jan-21 @ 22:20 UTC
(2 hours ago)
Valid From Jan-22 @ 00:00 UTC
(7 minutes ago)
Valid To Jan-23 @ 00:00 UTC
(in 24 hours)
Jan-22 @ 00:00 - Jan-23 @ 00:00
Wind Visibility
140° at 9 knots 10,000+ meters
Clouds
  • Scattered at 2,000' AGL
  • Broken at 5,000' AGL
Temporary Jan-22 @ 00:00 - Jan-22 @ 06:00
Clouds
  • Broken at 1,600' AGL
  • Overcast at 3,800' AGL
Conditions
  • Rain
Probability 30% Temporary Jan-22 @ 02:00 - Jan-22 @ 06:00
Clouds
  • Broken at 1,600' AGL
  • Few at 2,200' AGL
Conditions
  • Light Thunderstorm
  • Light Rain